Terminal Aerodrome Forecast
Issued by NWS

Current Version | Previous Version | Text Only | Print | Product List | Glossary On
Versions: 1 2 3 4 5 6 7 8 9 10 11 12 13 14 15 16 17 18
000
FTUS46 KMTR 242300 RRA
TAFSTS
TAF
KSTS 242345Z 2500/2524 24015G21KT P6SM SCT050 BKN250
     FM250400 26008KT P6SM -SHRA BKN035 OVC100
      TEMPO 2509/2513 26015G25KT 5SM SHRA OVC012
     FM251300 31014G19KT P6SM FEW030 SCT120=

USA.gov is the U.S. government's official web portal to all federal, state and local government web resources and services.